Trowbridge, Illinois
Current Conditions -  °F | °C
As of 4:10 PM on Thursday 27 Nov 2014 (Local Time) from KMTO Reporting Station
Overcast Overcast  
Wind Chill: 11°   Ceiling: 3700
Heat Index: 24°   Visibility: 10mi
Dew Point: 18°   Wind: 17mph
Humidity: 77%   Direction: 310°NW
Pressure: 30.42"   Gusts: NA
Location:  39.3144°N, 88.4504°W
Report Text: KMTO 272210Z AUTO 31015KT 10SM SCT016 OVC037 M04/M08 A3042 RMK AO2 T10441078
Loading
Personal Weather Stations






























Interactive Weather Map New forecast layout! Learn more

10-Day Weather Forecast

Advertisements
Track Severe Weather on mobile